Time;durP1;ratioP1;P1;durP2;ratioP2;P2;SDS_P1;SDS_P2;PMS_P1;PMS_P2;Temp;Humidity;BMP_temperature;BMP_pressure;BME280_temperature;BME280_humidity;BME280_pressure;Samples;Min_cycle;Max_cycle;Signal;HPM_P1;HPM_P2
2021/06/24 00:01:16;;;;;;;7.55;3.13;;;;;;;14.82;70.94;102167.28;5109205;28;20104;-58
2021/06/24 00:03:43;;;;;;;8.32;3.90;;;;;;;14.81;71.13;102156.78;5109951;28;20065;-59
2021/06/24 00:06:10;;;;;;;8.05;3.58;;;;;;;14.75;71.14;102159.81;5095878;28;20052;-58
2021/06/24 00:08:36;;;;;;;10.93;3.90;;;;;;;14.73;71.27;102164.38;5115690;28;20058;-58
2021/06/24 00:11:05;;;;;;;8.15;3.50;;;;;;;14.75;71.00;102168.63;5115846;28;20050;-59
2021/06/24 00:13:32;;;;;;;6.95;3.28;;;;;;;14.81;70.93;102156.78;5095803;28;20055;-58
2021/06/24 00:16:00;;;;;;;9.38;4.57;;;;;;;14.81;70.83;102159.44;5115933;28;20055;-58
2021/06/24 00:18:27;;;;;;;8.32;3.53;;;;;;;14.81;70.87;102151.50;5113426;28;20067;-58
2021/06/24 00:20:54;;;;;;;8.27;3.55;;;;;;;14.79;71.08;102141.00;5113243;28;20047;-56
2021/06/24 00:23:21;;;;;;;9.23;3.40;;;;;;;14.89;71.19;102138.63;5113664;28;20044;-55
2021/06/24 00:25:47;;;;;;;8.38;3.28;;;;;;;14.91;70.66;102144.66;5094665;28;20055;-55
2021/06/24 00:28:16;;;;;;;8.68;3.80;;;;;;;14.87;71.00;102140.50;5094994;28;20130;-55
2021/06/24 00:30:47;;;;;;;9.52;4.18;;;;;;;14.70;71.63;102145.06;5113038;28;20531;-55
2021/06/24 00:33:15;;;;;;;11.50;3.50;;;;;;;14.78;71.29;102141.06;5095480;28;20060;-55
2021/06/24 00:35:42;;;;;;;10.15;4.18;;;;;;;14.65;71.13;102146.28;5111807;28;20504;-55
2021/06/24 00:38:09;;;;;;;12.10;4.38;;;;;;;14.66;71.18;102148.00;5095375;28;20097;-55
2021/06/24 00:40:37;;;;;;;10.90;3.55;;;;;;;14.81;70.52;102152.34;5113649;28;20531;-55
2021/06/24 00:43:15;;;;;;;9.52;3.80;;;;;;;14.77;70.56;102152.63;5096687;28;20043;-55
2021/06/24 00:45:42;;;;;;;8.45;4.03;;;;;;;14.66;70.71;102154.13;5097938;28;20141;-59
2021/06/24 00:48:09;;;;;;;8.63;4.05;;;;;;;14.61;70.96;102150.03;5112902;28;20164;-58
2021/06/24 00:50:39;;;;;;;8.27;3.88;;;;;;;14.63;70.72;102154.34;5112800;28;20786;-59
2021/06/24 00:53:05;;;;;;;10.23;4.32;;;;;;;14.61;71.21;102155.34;5112916;28;20066;-59
2021/06/24 00:55:48;;;;;;;9.50;3.78;;;;;;;14.48;71.63;102149.94;5096725;28;20051;-59
2021/06/24 00:58:23;;;;;;;9.17;4.03;;;;;;;14.54;71.23;102149.56;5112998;28;20783;-58
2021/06/24 01:00:54;;;;;;;7.72;3.50;;;;;;;14.70;71.02;102147.72;5113506;28;20379;-59
2021/06/24 01:03:21;;;;;;;9.10;3.92;;;;;;;14.60;71.35;102151.84;5114185;28;20058;-58
2021/06/24 01:05:48;;;;;;;10.57;4.18;;;;;;;14.66;71.43;102145.34;5094135;28;20047;-58
2021/06/24 01:08:16;;;;;;;9.93;4.43;;;;;;;14.72;71.45;102157.34;5095208;28;20062;-58
2021/06/24 01:10:47;;;;;;;8.10;3.65;;;;;;;14.73;71.54;102161.72;5095311;28;20048;-58
2021/06/24 01:13:14;;;;;;;7.40;3.55;;;;;;;14.79;70.41;102159.53;5094919;28;20040;-58
2021/06/24 01:15:41;;;;;;;9.60;3.85;;;;;;;14.74;70.63;102153.66;5111781;28;20055;-58
2021/06/24 01:18:09;;;;;;;7.95;3.95;;;;;;;14.81;70.63;102156.78;5111459;28;20077;-58
2021/06/24 01:20:37;;;;;;;8.75;4.25;;;;;;;14.63;71.20;102156.13;5112674;28;20047;-58
2021/06/24 01:23:05;;;;;;;12.02;4.65;;;;;;;14.71;70.51;102156.50;5114132;28;20051;-59
2021/06/24 01:25:33;;;;;;;7.78;3.55;;;;;;;14.68;70.73;102157.56;5115995;28;20109;-59
2021/06/24 01:28:03;;;;;;;8.20;4.13;;;;;;;14.67;70.64;102153.19;5115508;28;20108;-57
2021/06/24 01:30:30;;;;;;;9.68;4.03;;;;;;;14.70;70.79;102152.16;5113622;28;20063;-60
2021/06/24 01:32:57;;;;;;;9.35;3.83;;;;;;;14.62;71.07;102149.94;5112135;28;20123;-58
2021/06/24 01:35:27;;;;;;;8.07;4.05;;;;;;;14.58;71.38;102147.59;5111005;28;20055;-58
2021/06/24 01:37:59;;;;;;;8.82;4.25;;;;;;;14.57;71.13;102144.06;5111975;28;20059;-59
2021/06/24 01:40:27;;;;;;;9.40;4.10;;;;;;;14.52;71.90;102139.06;5112013;28;20055;-58
2021/06/24 01:42:54;;;;;;;7.82;4.10;;;;;;;14.44;71.55;102137.81;5112661;28;20764;-57
2021/06/24 01:45:21;;;;;;;10.23;4.45;;;;;;;14.31;72.12;102133.28;5080404;28;20036;-58
2021/06/24 01:47:49;;;;;;;11.27;4.85;;;;;;;14.32;72.42;102132.34;5094777;28;20040;-58
2021/06/24 01:50:17;;;;;;;9.13;4.35;;;;;;;14.46;71.98;102138.59;5111501;28;20074;-59
2021/06/24 01:52:45;;;;;;;9.43;4.28;;;;;;;14.56;71.55;102139.75;5114844;28;20055;-58
2021/06/24 01:55:14;;;;;;;11.90;4.18;;;;;;;14.47;71.90;102140.31;5115168;28;20039;-58
2021/06/24 01:57:41;;;;;;;8.43;3.78;;;;;;;14.49;71.53;102149.00;5095379;28;20048;-59
2021/06/24 02:00:12;;;;;;;11.80;4.50;;;;;;;14.54;71.07;102144.28;5111560;28;20093;-55
2021/06/24 02:02:41;;;;;;;8.35;4.32;;;;;;;14.56;70.70;102145.03;5111781;28;20043;-53
2021/06/24 02:05:09;;;;;;;7.78;4.25;;;;;;;14.41;71.51;102130.09;5109509;28;20085;-55
2021/06/24 02:07:40;;;;;;;8.80;4.35;;;;;;;14.51;71.34;102139.19;5112759;28;20054;-55
2021/06/24 02:10:08;;;;;;;8.77;4.43;;;;;;;14.48;71.36;102139.34;5113336;28;20056;-54
2021/06/24 02:12:36;;;;;;;11.98;4.32;;;;;;;14.49;71.57;102146.34;5093554;28;20814;-52
2021/06/24 02:15:13;;;;;;;10.40;4.32;;;;;;;14.47;71.56;102138.50;5111092;28;20047;-57
2021/06/24 02:17:40;;;;;;;8.85;4.30;;;;;;;14.39;71.82;102138.13;5110696;28;20055;-58
2021/06/24 02:20:10;;;;;;;8.02;4.30;;;;;;;14.34;71.62;102146.34;5114482;28;20492;-58
2021/06/24 02:22:36;;;;;;;9.05;4.00;;;;;;;14.37;71.62;102143.50;5114485;28;20052;-58
2021/06/24 02:25:05;;;;;;;12.93;4.10;;;;;;;14.43;71.83;102144.94;5094488;28;20051;-54
2021/06/24 02:27:32;;;;;;;9.50;4.47;;;;;;;14.29;71.92;102134.31;5111512;28;20039;-53
2021/06/24 02:29:59;;;;;;;7.85;4.45;;;;;;;14.20;72.41;102135.72;5092041;28;20138;-53
2021/06/24 02:32:26;;;;;;;10.68;4.10;;;;;;;14.11;72.42;102131.00;5111210;28;20058;-57
2021/06/24 02:34:54;;;;;;;8.45;4.22;;;;;;;14.15;72.33;102121.94;5109894;28;20047;-58
2021/06/24 02:37:21;;;;;;;8.85;4.25;;;;;;;14.23;72.31;102127.59;5110119;28;20047;-58
2021/06/24 02:39:48;;;;;;;9.80;4.57;;;;;;;14.09;72.51;102122.31;5076173;28;20415;-58
2021/06/24 02:42:14;;;;;;;7.80;4.10;;;;;;;14.03;73.11;102129.66;5110696;28;20097;-53
2021/06/24 02:44:42;;;;;;;12.68;4.88;;;;;;;13.92;73.37;102125.94;5092222;28;20054;-55
2021/06/24 02:47:09;;;;;;;8.40;4.43;;;;;;;13.97;73.58;102121.22;5092444;28;20052;-55
2021/06/24 02:49:37;;;;;;;9.90;4.53;;;;;;;14.00;73.37;102118.41;5109588;28;20055;-56
2021/06/24 02:52:04;;;;;;;8.23;5.03;;;;;;;14.01;73.19;102122.75;5110631;28;20043;-54
2021/06/24 02:54:31;;;;;;;11.88;4.50;;;;;;;13.92;73.41;102118.88;5110428;28;20055;-59
2021/06/24 02:56:59;;;;;;;8.80;4.10;;;;;;;13.93;73.05;102127.66;5109718;28;20055;-58
2021/06/24 02:59:27;;;;;;;10.57;4.60;;;;;;;14.02;72.84;102112.09;5110262;28;20116;-58
2021/06/24 03:01:53;;;;;;;9.05;4.40;;;;;;;13.88;73.68;102113.84;5108657;28;20081;-58
2021/06/24 03:04:22;;;;;;;9.63;4.57;;;;;;;13.89;74.11;102111.09;5109816;28;20408;-59
2021/06/24 03:06:49;;;;;;;10.85;4.68;;;;;;;13.97;73.52;102111.50;5110567;28;20384;-57
2021/06/24 03:09:16;;;;;;;9.20;4.65;;;;;;;13.90;73.61;102109.31;5110728;28;20101;-59
2021/06/24 03:11:43;;;;;;;9.05;4.20;;;;;;;13.97;73.48;102111.50;5109660;28;20112;-58
2021/06/24 03:14:10;;;;;;;9.13;4.15;;;;;;;14.06;73.56;102107.47;5110724;28;20063;-58
2021/06/24 03:16:37;;;;;;;9.40;4.57;;;;;;;14.10;73.79;102105.50;5108414;28;20058;-58
2021/06/24 03:19:05;;;;;;;11.60;4.55;;;;;;;14.13;73.33;102102.66;5108975;28;20461;-58
2021/06/24 03:21:32;;;;;;;9.50;5.13;;;;;;;14.09;73.57;102103.78;5075719;28;20058;-58
2021/06/24 03:23:59;;;;;;;9.75;5.50;;;;;;;14.09;73.45;102104.63;5091553;28;20055;-57
2021/06/24 03:26:26;;;;;;;8.30;4.35;;;;;;;14.11;73.41;102094.81;5110073;28;20062;-52
2021/06/24 03:28:53;;;;;;;11.30;4.90;;;;;;;14.01;73.38;102099.78;5109648;28;20043;-54
2021/06/24 03:31:20;;;;;;;8.70;4.90;;;;;;;13.99;73.53;102104.34;5109106;28;20050;-59
2021/06/24 03:33:47;;;;;;;8.60;4.72;;;;;;;13.95;73.76;102107.28;5091569;28;20092;-58
2021/06/24 03:36:13;;;;;;;10.93;5.18;;;;;;;13.94;73.84;102098.47;5075105;28;20051;-54
2021/06/24 03:38:44;;;;;;;8.65;5.00;;;;;;;13.93;73.61;102102.03;5110384;28;20093;-54
2021/06/24 03:41:12;;;;;;;11.20;4.75;;;;;;;13.89;74.10;102100.53;5109440;28;20078;-54
2021/06/24 03:43:40;;;;;;;9.75;4.65;;;;;;;13.96;74.08;102104.53;5092444;28;20058;-53
2021/06/24 03:46:06;;;;;;;16.85;5.55;;;;;;;14.07;73.47;102105.66;5108919;28;20051;-54
2021/06/24 03:48:34;;;;;;;13.80;4.82;;;;;;;13.99;73.77;102111.44;5109055;28;20744;-54
2021/06/24 03:51:02;;;;;;;10.60;4.95;;;;;;;13.99;73.54;102106.16;5109413;28;20039;-52
2021/06/24 03:53:29;;;;;;;7.03;4.22;;;;;;;14.06;73.70;102110.13;5108743;28;20051;-53
2021/06/24 03:55:56;;;;;;;9.75;4.97;;;;;;;13.99;73.60;102100.84;5109533;28;20054;-53
2021/06/24 03:58:23;;;;;;;8.18;5.00;;;;;;;14.08;73.74;102110.03;5109395;28;20063;-58
2021/06/24 04:00:50;;;;;;;10.68;5.15;;;;;;;14.00;73.51;102110.47;5109403;28;20411;-58
2021/06/24 04:03:17;;;;;;;9.70;4.78;;;;;;;14.03;73.21;102097.91;5109602;28;20586;-58
2021/06/24 04:05:44;;;;;;;7.82;4.63;;;;;;;13.99;73.76;102092.91;5091028;28;20046;-58
2021/06/24 04:08:11;;;;;;;9.38;4.97;;;;;;;14.01;73.54;102091.03;5109632;28;20530;-59
2021/06/24 04:10:58;;;;;;;10.52;4.95;;;;;;;13.91;73.54;102090.72;5109114;28;20115;-59
2021/06/24 04:13:24;;;;;;;8.98;4.55;;;;;;;13.91;74.34;102089.88;5110037;28;20112;-58
2021/06/24 04:15:51;;;;;;;10.13;5.03;;;;;;;13.91;74.37;102087.25;5108794;28;20051;-58
2021/06/24 04:18:18;;;;;;;13.05;4.82;;;;;;;13.98;73.49;102086.75;5108955;28;20590;-58
2021/06/24 04:20:45;;;;;;;7.45;4.57;;;;;;;13.93;74.11;102087.97;5109272;28;20051;-57
2021/06/24 04:23:12;;;;;;;13.40;5.43;;;;;;;13.98;73.99;102077.97;5109678;28;20075;-58
2021/06/24 04:25:39;;;;;;;9.77;4.90;;;;;;;13.93;74.53;102072.94;5109850;28;20051;-59
2021/06/24 04:28:06;;;;;;;8.10;4.95;;;;;;;13.96;74.18;102075.44;5108773;28;20092;-58
2021/06/24 04:30:33;;;;;;;8.88;5.20;;;;;;;13.98;74.16;102076.19;5091418;28;20055;-58
2021/06/24 04:33:00;;;;;;;9.40;5.05;;;;;;;14.07;74.10;102077.44;5107538;28;20066;-58
2021/06/24 04:35:27;;;;;;;12.18;5.72;;;;;;;14.09;73.86;102075.53;5090884;28;20051;-59
2021/06/24 04:37:55;;;;;;;13.25;5.00;;;;;;;14.19;73.60;102071.41;5107992;28;20048;-58
2021/06/24 04:40:22;;;;;;;9.70;4.85;;;;;;;14.17;73.57;102072.44;5109787;28;20044;-54
2021/06/24 04:42:49;;;;;;;7.70;4.63;;;;;;;14.26;72.87;102071.00;5108947;28;20059;-56
2021/06/24 04:45:16;;;;;;;8.05;5.20;;;;;;;14.06;73.55;102072.22;5090971;28;20478;-56
2021/06/24 04:47:43;;;;;;;8.60;4.85;;;;;;;14.07;73.23;102072.16;5108469;28;20054;-59
2021/06/24 04:50:11;;;;;;;9.23;4.68;;;;;;;13.99;74.18;102069.13;5108669;28;20119;-59
2021/06/24 04:52:38;;;;;;;10.77;5.50;;;;;;;14.15;73.54;102071.66;5093977;28;20047;-58
2021/06/24 04:55:05;;;;;;;7.95;5.40;;;;;;;14.16;73.31;102070.72;5113033;28;20066;-58
2021/06/24 04:57:32;;;;;;;9.15;4.50;;;;;;;14.07;73.94;102066.84;5094548;28;20720;-58
2021/06/24 04:59:59;;;;;;;9.23;4.63;;;;;;;14.19;73.76;102075.81;5112046;28;20027;-58
2021/06/24 05:02:25;;;;;;;10.77;4.93;;;;;;;14.14;73.52;102068.19;5112977;28;20039;-58
2021/06/24 05:04:54;;;;;;;12.82;5.32;;;;;;;14.20;73.71;102065.13;5111741;28;20044;-55
2021/06/24 05:07:21;;;;;;;8.07;4.13;;;;;;;14.27;73.25;102067.44;5113291;28;20059;-59
2021/06/24 05:09:48;;;;;;;9.10;4.50;;;;;;;14.32;73.27;102071.47;5112937;28;20050;-57
2021/06/24 05:12:15;;;;;;;8.75;4.63;;;;;;;14.36;73.03;102066.88;5112725;28;20054;-53
2021/06/24 05:14:42;;;;;;;10.77;4.78;;;;;;;14.32;73.10;102079.41;5112938;28;20602;-54
2021/06/24 05:17:14;;;;;;;14.30;5.28;;;;;;;14.29;73.54;102076.09;5112129;28;20055;-57
2021/06/24 05:19:42;;;;;;;12.68;4.72;;;;;;;14.32;73.15;102078.59;5112115;28;20039;-57
2021/06/24 05:22:10;;;;;;;10.68;4.90;;;;;;;14.37;72.36;102087.94;5112588;28;20077;-57
2021/06/24 05:24:38;;;;;;;8.65;4.20;;;;;;;14.38;72.52;102088.78;5112818;28;20529;-58
2021/06/24 05:27:06;;;;;;;10.93;4.40;;;;;;;14.40;72.41;102078.09;5111465;28;20086;-58
2021/06/24 05:29:33;;;;;;;10.93;4.70;;;;;;;14.48;72.07;102084.63;5094234;28;20549;-55
2021/06/24 05:32:00;;;;;;;8.85;4.57;;;;;;;14.55;71.88;102082.44;5110754;28;20484;-57
2021/06/24 05:34:27;;;;;;;8.45;4.68;;;;;;;14.53;71.70;102079.03;5112033;28;20043;-57
2021/06/24 05:36:54;;;;;;;11.25;4.72;;;;;;;14.54;71.83;102086.03;5094034;28;20043;-54
2021/06/24 05:39:21;;;;;;;14.00;5.57;;;;;;;14.58;72.29;102084.91;5112753;28;20040;-58
2021/06/24 05:41:48;;;;;;;11.30;4.95;;;;;;;14.63;72.06;102081.97;5111951;28;20132;-58
2021/06/24 05:44:14;;;;;;;10.82;4.88;;;;;;;14.54;72.50;102086.03;5112474;28;20055;-58
2021/06/24 05:46:41;;;;;;;8.23;4.30;;;;;;;14.70;71.74;102084.16;5111520;28;20036;-53
2021/06/24 05:49:08;;;;;;;9.52;4.70;;;;;;;14.69;71.41;102078.97;5110837;28;20031;-58
2021/06/24 05:51:35;;;;;;;14.48;5.25;;;;;;;14.75;71.60;102083.88;5111911;28;20040;-58
2021/06/24 05:54:02;;;;;;;10.15;4.72;;;;;;;14.74;71.43;102076.00;5111720;28;20059;-59
2021/06/24 05:56:30;;;;;;;9.18;5.40;;;;;;;14.54;72.12;102071.00;5111712;28;20054;-52
2021/06/24 05:58:57;;;;;;;11.20;5.15;;;;;;;14.66;71.70;102076.53;5110569;28;20043;-54
2021/06/24 06:01:23;;;;;;;9.63;5.72;;;;;;;14.60;72.00;102077.72;5093308;28;20499;-54
2021/06/24 06:03:50;;;;;;;11.48;5.15;;;;;;;14.69;72.58;102084.25;5092384;28;20135;-58
2021/06/24 06:06:17;;;;;;;9.70;5.55;;;;;;;14.78;71.27;102088.13;5111317;28;20075;-58
2021/06/24 06:08:44;;;;;;;10.88;5.40;;;;;;;14.92;71.21;102076.66;5112433;28;20381;-57
2021/06/24 06:11:11;;;;;;;14.50;5.95;;;;;;;14.83;71.93;102088.69;5111711;28;20043;-58
2021/06/24 06:13:39;;;;;;;10.40;4.70;;;;;;;14.96;70.82;102081.66;5110320;28;20061;-53
2021/06/24 06:16:06;;;;;;;8.98;4.97;;;;;;;14.88;70.87;102074.19;5110685;28;20047;-53
2021/06/24 06:18:33;;;;;;;10.05;4.88;;;;;;;14.93;70.60;102073.91;5111067;28;20559;-53
2021/06/24 06:21:00;;;;;;;8.32;4.80;;;;;;;15.02;70.48;102077.75;5110009;28;20044;-58
2021/06/24 06:23:28;;;;;;;9.38;4.90;;;;;;;15.19;70.06;102082.81;5111579;28;20055;-58
2021/06/24 06:25:55;;;;;;;11.25;4.65;;;;;;;15.14;69.60;102078.78;5093202;28;20056;-58
2021/06/24 06:28:23;;;;;;;9.02;5.30;;;;;;;15.11;70.20;102078.97;5111012;28;20055;-55
2021/06/24 06:30:51;;;;;;;9.40;4.55;;;;;;;15.06;69.87;102071.31;5110776;28;20055;-58
2021/06/24 06:33:19;;;;;;;13.73;5.47;;;;;;;15.04;70.15;102068.75;5110542;28;20051;-58
2021/06/24 06:35:47;;;;;;;8.07;4.90;;;;;;;15.17;71.01;102067.97;5092276;28;20399;-58
2021/06/24 06:38:14;;;;;;;9.38;4.80;;;;;;;15.19;69.83;102061.63;5111559;28;20070;-58
2021/06/24 06:40:42;;;;;;;11.25;4.90;;;;;;;15.19;70.04;102063.44;5111409;28;20594;-59
2021/06/24 06:43:12;;;;;;;8.85;4.90;;;;;;;15.37;69.40;102053.41;5092176;28;20108;-59
2021/06/24 06:45:39;;;;;;;9.93;4.82;;;;;;;15.36;69.51;102049.88;5092678;28;20059;-56
2021/06/24 06:48:06;;;;;;;11.90;5.40;;;;;;;15.49;69.42;102051.75;5091797;28;20384;-57
2021/06/24 06:50:33;;;;;;;10.45;4.90;;;;;;;15.52;69.66;102047.06;5110369;28;20480;-59
2021/06/24 06:53:00;;;;;;;8.95;4.82;;;;;;;15.60;69.39;102048.34;5110985;28;20158;-55
2021/06/24 06:55:30;;;;;;;9.68;4.60;;;;;;;15.59;68.39;102059.94;5111060;28;20039;-59
2021/06/24 06:57:58;;;;;;;8.88;4.70;;;;;;;15.55;68.20;102056.63;5109939;28;20051;-57
2021/06/24 07:00:25;;;;;;;9.77;4.93;;;;;;;15.70;67.69;102055.56;5110075;28;20042;-55
2021/06/24 07:02:52;;;;;;;10.10;5.25;;;;;;;15.72;67.87;102055.50;5092377;28;20058;-54
2021/06/24 07:05:19;;;;;;;10.23;4.60;;;;;;;15.73;68.18;102059.81;5112712;28;20070;-58
2021/06/24 07:07:46;;;;;;;9.38;5.10;;;;;;;15.78;67.39;102056.88;5110375;28;20400;-56
2021/06/24 07:10:14;;;;;;;8.85;4.68;;;;;;;15.82;66.92;102061.91;5110726;28;20492;-53
2021/06/24 07:12:41;;;;;;;7.78;4.10;;;;;;;15.81;67.82;102062.00;5110440;28;20052;-55
2021/06/24 07:15:09;;;;;;;9.48;4.70;;;;;;;16.04;67.39;102063.06;5109346;28;20047;-59
2021/06/24 07:17:36;;;;;;;8.98;4.20;;;;;;;16.04;66.94;102063.91;5109902;28;20387;-54
2021/06/24 07:20:04;;;;;;;9.45;4.53;;;;;;;16.15;66.76;102059.69;5091028;28;20510;-54
2021/06/24 07:22:31;;;;;;;9.43;4.70;;;;;;;16.24;65.87;102056.38;5109883;28;20078;-56
2021/06/24 07:24:58;;;;;;;7.60;4.55;;;;;;;16.34;66.07;102053.94;5108897;28;20043;-59
2021/06/24 07:27:25;;;;;;;13.68;4.50;;;;;;;16.50;65.86;102059.00;5109230;28;20516;-58
2021/06/24 07:29:52;;;;;;;8.10;4.20;;;;;;;16.43;64.74;102055.94;5109529;28;20496;-57
2021/06/24 07:32:19;;;;;;;9.10;4.07;;;;;;;16.47;64.14;102056.56;5109883;28;20077;-58
2021/06/24 07:34:46;;;;;;;9.02;3.80;;;;;;;16.57;63.83;102057.59;5091051;28;20039;-58
2021/06/24 07:37:13;;;;;;;8.60;3.72;;;;;;;16.49;63.83;102060.81;5110056;28;20083;-58
2021/06/24 07:39:39;;;;;;;9.63;3.53;;;;;;;16.63;63.71;102053.66;5110218;28;20043;-58
2021/06/24 07:42:06;;;;;;;10.10;4.25;;;;;;;16.69;63.22;102058.53;5091145;28;20051;-58
2021/06/24 07:44:33;;;;;;;7.82;3.65;;;;;;;16.85;63.21;102058.25;5109559;28;20734;-55
2021/06/24 07:47:00;;;;;;;8.15;4.03;;;;;;;16.84;63.11;102054.78;5109560;28;20411;-55
2021/06/24 07:49:27;;;;;;;11.38;4.22;;;;;;;17.07;63.70;102052.28;5108594;28;20564;-54
2021/06/24 07:51:54;;;;;;;7.20;3.95;;;;;;;17.13;62.59;102057.13;5092038;28;20055;-53
2021/06/24 07:54:20;;;;;;;8.70;3.72;;;;;;;17.03;61.18;102051.66;5109567;28;20055;-56
2021/06/24 07:56:47;;;;;;;7.25;3.50;;;;;;;16.97;60.76;102054.75;5109058;28;20050;-54
2021/06/24 07:59:16;;;;;;;11.25;3.40;;;;;;;17.00;60.69;102054.53;5109336;28;20048;-55
2021/06/24 08:01:43;;;;;;;6.53;3.55;;;;;;;17.24;61.48;102059.00;5109345;28;20426;-55
2021/06/24 08:04:10;;;;;;;7.47;3.70;;;;;;;17.25;60.22;102055.38;5108569;28;20094;-55
2021/06/24 08:06:37;;;;;;;7.43;3.75;;;;;;;17.27;60.87;102063.22;5109844;28;20503;-55
2021/06/24 08:09:10;;;;;;;5.85;3.33;;;;;;;17.31;58.25;102062.88;5109825;28;20046;-55
2021/06/24 08:11:37;;;;;;;8.48;3.45;;;;;;;17.41;58.92;102065.72;5109091;28;20087;-55
2021/06/24 08:14:04;;;;;;;6.35;3.28;;;;;;;17.35;59.52;102061.69;5109595;28;20058;-57
2021/06/24 08:16:31;;;;;;;8.02;3.75;;;;;;;17.34;58.45;102060.00;5090636;28;20051;-58
2021/06/24 08:18:58;;;;;;;7.97;3.78;;;;;;;17.39;58.66;102062.31;5107194;28;20043;-59
2021/06/24 08:21:25;;;;;;;8.85;3.33;;;;;;;17.39;59.39;102060.50;5109683;28;20093;-58
2021/06/24 08:23:51;;;;;;;6.82;3.20;;;;;;;17.61;60.05;102055.38;5109665;28;20052;-57
2021/06/24 08:26:19;;;;;;;4.97;2.90;;;;;;;17.67;58.93;102060.22;5109177;28;20040;-60
2021/06/24 08:28:46;;;;;;;7.97;3.53;;;;;;;17.43;57.64;102058.47;5113260;28;20052;-54
2021/06/24 08:31:13;;;;;;;6.57;2.95;;;;;;;17.44;58.30;102054.84;5094109;28;20937;-56
2021/06/24 08:33:40;;;;;;;7.60;3.42;;;;;;;17.36;58.89;102060.72;5111096;28;20040;-56
2021/06/24 08:36:07;;;;;;;8.57;3.88;;;;;;;17.39;59.08;102057.00;5112164;28;20070;-55
2021/06/24 08:38:35;;;;;;;7.38;3.53;;;;;;;17.53;59.54;102059.47;5113005;28;20121;-56
2021/06/24 08:41:03;;;;;;;7.10;3.58;;;;;;;17.63;58.53;102058.75;5112264;28;20044;-59
2021/06/24 08:43:30;;;;;;;8.40;3.15;;;;;;;17.69;58.30;102060.97;5112670;28;20054;-56
2021/06/24 08:46:00;;;;;;;7.47;3.80;;;;;;;17.78;57.72;102062.91;5112209;28;20441;-58
2021/06/24 08:48:32;;;;;;;5.72;3.35;;;;;;;17.79;58.89;102053.94;5111825;28;20052;-59
2021/06/24 08:50:59;;;;;;;8.60;4.13;;;;;;;17.71;58.44;102059.88;5093776;28;20055;-60
2021/06/24 08:53:26;;;;;;;9.02;4.13;;;;;;;17.93;58.01;102068.03;5112801;28;20123;-59
2021/06/24 08:55:55;;;;;;;6.93;4.05;;;;;;;17.86;57.74;102065.84;5094118;28;20044;-58
2021/06/24 08:58:23;;;;;;;8.07;4.22;;;;;;;17.96;58.22;102073.16;5094180;28;20056;-59
2021/06/24 09:00:51;;;;;;;7.05;3.92;;;;;;;18.13;57.01;102066.50;5112009;28;20078;-59
2021/06/24 09:03:28;;;;;;;10.52;4.15;;;;;;;18.07;58.33;102067.84;5111573;28;20555;-59
2021/06/24 09:05:57;;;;;;;10.27;4.40;;;;;;;18.11;57.19;102063.13;5111769;28;20056;-59
2021/06/24 09:08:37;;;;;;;11.57;4.47;;;;;;;18.24;56.64;102066.50;5112648;28;20055;-59
2021/06/24 09:11:23;;;;;;;7.80;4.45;;;;;;;18.19;56.89;102066.03;5093776;28;20043;-58
2021/06/24 09:14:04;;;;;;;8.25;4.55;;;;;;;18.18;57.07;102059.00;5094121;28;20051;-59
2021/06/24 09:16:33;;;;;;;10.48;4.40;;;;;;;18.27;58.01;102068.06;5110684;28;20056;-59
2021/06/24 09:19:15;;;;;;;7.40;4.10;;;;;;;18.35;57.62;102066.53;5111024;28;20036;-58
2021/06/24 09:21:44;;;;;;;8.73;4.35;;;;;;;18.28;56.68;102075.94;5112587;28;20831;-59
2021/06/24 09:24:22;;;;;;;8.20;3.85;;;;;;;18.47;57.02;102069.16;5112544;28;20062;-59
2021/06/24 09:26:49;;;;;;;6.88;4.28;;;;;;;18.50;56.59;102072.44;5108432;28;20052;-59
2021/06/24 09:29:17;;;;;;;7.28;4.38;;;;;;;18.61;56.53;102071.59;5108243;28;20411;-59
2021/06/24 09:31:48;;;;;;;7.53;4.03;;;;;;;18.44;55.00;102075.59;5111229;28;20047;-59
2021/06/24 09:34:15;;;;;;;7.25;3.90;;;;;;;18.40;55.74;102064.31;5108204;28;20052;-56
2021/06/24 09:36:53;;;;;;;9.15;4.13;;;;;;;18.39;56.36;102073.28;5105456;28;20048;-57
2021/06/24 09:39:29;;;;;;;8.07;4.43;;;;;;;18.53;56.50;102072.19;5100493;28;20031;-55
2021/06/24 09:42:08;;;;;;;6.82;4.10;;;;;;;18.58;57.17;102075.34;5102799;28;20639;-56
2021/06/24 09:44:37;;;;;;;7.40;4.57;;;;;;;18.73;55.81;102075.06;5104763;27;20050;-56
2021/06/24 09:47:26;;;;;;;9.43;4.15;;;;;;;18.48;56.11;102077.03;5104335;28;20490;-57
2021/06/24 09:49:56;;;;;;;9.00;4.20;;;;;;;18.31;55.63;102072.19;5087092;28;20054;-54
2021/06/24 09:52:23;;;;;;;7.68;4.30;;;;;;;18.20;55.63;102075.69;5091276;28;20047;-57
2021/06/24 09:55:00;;;;;;;6.47;3.80;;;;;;;18.20;56.72;102073.91;5100112;28;20044;-56
2021/06/24 09:57:27;;;;;;;8.60;4.00;;;;;;;18.38;56.08;102071.59;5099623;28;20425;-55
2021/06/24 09:59:54;;;;;;;10.38;4.75;;;;;;;18.40;55.95;102069.66;5088832;28;20097;-56
2021/06/24 10:02:21;;;;;;;9.80;4.30;;;;;;;18.30;56.14;102068.69;5070524;28;20093;-56
2021/06/24 10:04:48;;;;;;;7.95;4.13;;;;;;;18.33;56.09;102067.59;5095397;28;20122;-55
2021/06/24 10:07:21;;;;;;;8.52;4.60;;;;;;;18.53;57.40;102068.69;5091621;28;20046;-56
2021/06/24 10:09:48;;;;;;;10.43;4.95;;;;;;;18.61;56.51;102062.72;5090555;28;20407;-57
2021/06/24 10:12:17;;;;;;;10.55;4.90;;;;;;;18.67;55.31;102068.41;5108308;28;20043;-56
2021/06/24 10:14:45;;;;;;;6.55;4.15;;;;;;;18.73;55.81;102065.28;5109049;28;20717;-55
2021/06/24 10:17:13;;;;;;;8.73;5.35;;;;;;;18.56;56.18;102057.78;5109313;28;20511;-57
2021/06/24 10:19:45;;;;;;;8.82;5.22;;;;;;;18.45;56.04;102060.44;5090430;28;20797;-55
2021/06/24 10:22:15;;;;;;;7.55;4.75;;;;;;;18.49;56.89;102060.09;5109734;28;20063;-56
2021/06/24 10:24:47;;;;;;;10.48;5.13;;;;;;;18.64;56.92;102055.34;5108997;28;20097;-58
2021/06/24 10:27:15;;;;;;;8.45;5.13;;;;;;;18.48;57.21;102060.22;5074672;28;20054;-55
2021/06/24 10:29:50;;;;;;;10.82;5.05;;;;;;;18.55;57.29;102059.59;5092217;28;20044;-58
2021/06/24 10:32:24;;;;;;;8.00;4.72;;;;;;;18.70;56.67;102054.00;5110581;28;20530;-57
2021/06/24 10:34:53;;;;;;;9.77;4.45;;;;;;;18.54;57.06;102062.38;5109801;28;20075;-58
2021/06/24 10:37:23;;;;;;;8.40;4.85;;;;;;;18.52;57.13;102070.50;5092304;28;20047;-58
2021/06/24 10:39:52;;;;;;;7.65;4.50;;;;;;;18.70;55.89;102067.31;5091629;28;20491;-59
2021/06/24 10:42:20;;;;;;;7.78;4.60;;;;;;;18.60;56.92;102064.56;5091663;28;20499;-58
2021/06/24 10:44:49;;;;;;;9.75;4.97;;;;;;;18.74;56.29;102068.78;5091440;28;20525;-59
2021/06/24 10:47:31;;;;;;;6.90;3.83;;;;;;;18.68;57.37;102071.91;5091255;28;20113;-57
2021/06/24 10:50:26;;;;;;;8.20;4.43;;;;;;;18.62;56.37;102062.59;5108488;28;20047;-58
2021/06/24 10:52:54;;;;;;;8.27;4.22;;;;;;;18.74;56.04;102064.28;5110187;28;20400;-59
2021/06/24 10:55:33;;;;;;;7.13;4.47;;;;;;;18.70;55.94;102059.34;5091810;28;20165;-58
2021/06/24 10:58:00;;;;;;;9.77;4.75;;;;;;;18.81;56.38;102056.63;5109175;28;20051;-59
2021/06/24 11:00:48;;;;;;;8.30;4.45;;;;;;;18.72;56.07;102052.06;5090986;28;20044;-59
2021/06/24 11:03:24;;;;;;;8.52;4.70;;;;;;;18.81;55.26;102045.97;5091975;28;20071;-59
2021/06/24 11:05:54;;;;;;;8.82;4.30;;;;;;;18.88;55.53;102041.91;5109290;28;20522;-59
2021/06/24 11:08:31;;;;;;;8.50;4.50;;;;;;;18.77;56.44;102049.03;5110027;28;20062;-59
2021/06/24 11:11:08;;;;;;;9.07;4.55;;;;;;;18.66;56.44;102048.06;5091619;28;20047;-58
2021/06/24 11:13:35;;;;;;;9.32;4.95;;;;;;;18.63;55.66;102042.16;5109907;28;20511;-58
2021/06/24 11:16:17;;;;;;;9.48;4.55;;;;;;;18.57;55.79;102039.00;5108921;28;20085;-59
2021/06/24 11:18:55;;;;;;;12.00;4.65;;;;;;;18.47;55.93;102043.38;5109250;28;20130;-58
2021/06/24 11:21:28;;;;;;;9.60;5.78;;;;;;;18.36;56.76;102040.72;5109521;28;20499;-65
2021/06/24 11:23:59;;;;;;;11.30;5.35;;;;;;;18.60;56.77;102045.91;5109928;28;20054;-57
2021/06/24 11:26:26;;;;;;;9.60;5.40;;;;;;;18.34;56.56;102054.16;5090551;28;20373;-56
2021/06/24 11:29:15;;;;;;;8.48;5.15;;;;;;;18.41;56.23;102044.72;5109323;28;20048;-57